Time;durP1;ratioP1;P1;durP2;ratioP2;P2;SDS_P1;SDS_P2;PMS_P1;PMS_P2;Temp;Humidity;BMP_temperature;BMP_pressure;BME280_temperature;BME280_humidity;BME280_pressure;Samples;Min_cycle;Max_cycle;Signal;HPM_P1;HPM_P2
2022/07/28 00:02:16;;;;;;;0.65;0.40;;;14.60;99.90;;;;;;5020327;28;20050;-73
2022/07/28 00:04:41;;;;;;;1.08;1.00;;;14.60;99.90;;;;;;5022031;28;20471;-73
2022/07/28 00:07:07;;;;;;;0.52;0.52;;;14.60;99.90;;;;;;5042039;28;20049;-73
2022/07/28 00:09:33;;;;;;;1.95;0.60;;;14.50;99.90;;;;;;5043445;28;20044;-73
2022/07/28 00:11:58;;;;;;;1.05;0.88;;;14.50;99.90;;;;;;5041236;28;20548;-73
2022/07/28 00:14:25;;;;;;;0.82;0.82;;;14.50;99.90;;;;;;5063382;28;20051;-73
2022/07/28 00:16:51;;;;;;;0.95;0.95;;;14.60;99.90;;;;;;5061930;28;20071;-73
2022/07/28 00:19:17;;;;;;;2.78;0.85;;;14.50;99.90;;;;;;5063571;28;20049;-73
2022/07/28 00:21:42;;;;;;;1.05;1.00;;;14.60;99.90;;;;;;5054428;28;20045;-73
2022/07/28 00:24:08;;;;;;;1.55;0.75;;;14.50;99.90;;;;;;5042905;28;20037;-73
2022/07/28 00:26:34;;;;;;;0.98;0.88;;;14.50;99.90;;;;;;5042313;28;20450;-73
2022/07/28 00:29:00;;;;;;;2.03;1.13;;;14.50;99.90;;;;;;5042723;28;20045;-73
2022/07/28 00:31:25;;;;;;;1.15;0.82;;;14.50;99.90;;;;;;5043619;28;20552;-73
2022/07/28 00:33:51;;;;;;;0.68;0.68;;;14.50;99.90;;;;;;5043057;28;20040;-73
2022/07/28 00:36:17;;;;;;;2.15;0.73;;;14.50;99.90;;;;;;5042412;28;20037;-73
2022/07/28 00:38:42;;;;;;;1.52;0.80;;;14.50;99.90;;;;;;5042653;28;20045;-73
2022/07/28 00:41:11;;;;;;;1.48;1.38;;;14.50;99.90;;;;;;5042098;28;20060;-73
2022/07/28 00:43:44;;;;;;;1.25;0.80;;;14.50;99.90;;;;;;5042073;28;20071;-73
2022/07/28 00:46:11;;;;;;;6.65;0.85;;;14.50;99.90;;;;;;5043451;28;20144;-73
2022/07/28 00:48:38;;;;;;;0.75;0.75;;;14.50;99.90;;;;;;5043055;28;20045;-73
2022/07/28 00:51:04;;;;;;;1.30;1.20;;;14.50;99.90;;;;;;5042555;28;20052;-73
2022/07/28 00:53:29;;;;;;;0.50;0.50;;;14.50;99.90;;;;;;5042400;28;20033;-73
2022/07/28 00:55:57;;;;;;;0.55;0.52;;;14.50;99.90;;;;;;5042758;28;20048;-73
2022/07/28 00:58:22;;;;;;;0.80;0.80;;;14.50;99.90;;;;;;5041820;28;20056;-73
2022/07/28 01:00:48;;;;;;;1.50;0.95;;;14.50;99.90;;;;;;5042193;28;20696;-73
2022/07/28 01:03:13;;;;;;;1.45;1.35;;;14.50;99.90;;;;;;5043019;28;20083;-73
2022/07/28 01:05:51;;;;;;;1.15;1.13;;;14.50;99.90;;;;;;5042696;28;20045;-73
2022/07/28 01:08:39;;;;;;;1.20;1.10;;;14.50;99.90;;;;;;5022586;28;20073;-73
2022/07/28 01:11:13;;;;;;;1.65;0.85;;;14.50;99.90;;;;;;5022426;28;20088;-73
2022/07/28 01:13:58;;;;;;;0.57;0.57;;;14.50;99.90;;;;;;5049659;28;20048;-73
2022/07/28 01:16:25;;;;;;;0.77;0.77;;;14.50;99.90;;;;;;5062163;28;20047;-73
2022/07/28 01:19:00;;;;;;;1.75;0.95;;;14.50;99.90;;;;;;5060238;28;20055;-73
2022/07/28 01:21:33;;;;;;;0.47;0.47;;;14.50;99.90;;;;;;5047918;28;20052;-73
2022/07/28 01:24:20;;;;;;;1.00;0.77;;;14.50;99.90;;;;;;5040899;28;20071;-73
2022/07/28 01:26:57;;;;;;;0.80;0.68;;;14.40;99.90;;;;;;5040197;28;20495;-73
2022/07/28 01:29:41;;;;;;;4.80;1.15;;;14.40;99.90;;;;;;5041836;28;20045;-73
2022/07/28 01:32:17;;;;;;;0.90;0.70;;;14.40;99.90;;;;;;5042178;28;20045;-73
2022/07/28 01:34:50;;;;;;;4.60;1.83;;;14.30;99.90;;;;;;5042230;28;20041;-73
2022/07/28 01:37:21;;;;;;;1.52;0.70;;;14.30;99.90;;;;;;5040464;28;20076;-73
2022/07/28 01:39:52;;;;;;;3.25;1.13;;;14.30;99.90;;;;;;5040521;28;20053;-73
2022/07/28 01:42:21;;;;;;;0.90;0.77;;;14.30;99.90;;;;;;5040869;28;20139;-73
2022/07/28 01:44:48;;;;;;;1.08;0.95;;;14.30;99.90;;;;;;5041720;28;20068;-73
2022/07/28 01:47:15;;;;;;;0.65;0.55;;;14.30;99.90;;;;;;5041604;28;20036;-73
2022/07/28 01:49:44;;;;;;;1.15;0.63;;;14.30;99.90;;;;;;5041974;28;20123;-73
2022/07/28 01:52:09;;;;;;;0.82;0.73;;;14.30;99.90;;;;;;5041646;28;20064;-73
2022/07/28 01:54:42;;;;;;;0.82;0.82;;;14.30;99.90;;;;;;5041957;28;20392;-73
2022/07/28 01:57:09;;;;;;;0.85;0.70;;;14.30;99.90;;;;;;5040659;28;20079;-73
2022/07/28 01:59:37;;;;;;;0.70;0.70;;;14.30;99.90;;;;;;5041798;28;20483;-73
2022/07/28 02:02:04;;;;;;;2.97;1.55;;;14.30;99.90;;;;;;5040695;28;20396;-73
2022/07/28 02:04:32;;;;;;;1.45;0.98;;;14.30;99.90;;;;;;5041376;28;20068;-73
2022/07/28 02:07:00;;;;;;;0.70;0.70;;;14.30;99.90;;;;;;5041274;28;20059;-73
2022/07/28 02:09:26;;;;;;;0.40;0.40;;;14.30;99.90;;;;;;5041033;28;20044;-73
2022/07/28 02:11:54;;;;;;;0.75;0.75;;;14.30;99.90;;;;;;5040369;28;20055;-73
2022/07/28 02:14:22;;;;;;;0.85;0.85;;;14.30;99.90;;;;;;5060743;28;20469;-73
2022/07/28 02:16:51;;;;;;;2.17;1.08;;;14.20;99.90;;;;;;5060677;28;20057;-73
2022/07/28 02:19:18;;;;;;;0.45;0.30;;;14.20;99.90;;;;;;5060177;28;20475;-73
2022/07/28 02:21:48;;;;;;;0.60;0.60;;;14.10;99.90;;;;;;5060778;28;20538;-73
2022/07/28 02:24:17;;;;;;;2.65;0.75;;;14.00;99.90;;;;;;5060696;28;20556;-73
2022/07/28 02:26:48;;;;;;;1.05;0.98;;;14.00;99.90;;;;;;5049162;28;20087;-73
2022/07/28 02:29:17;;;;;;;0.25;0.25;;;14.00;99.90;;;;;;5040031;28;20498;-73
2022/07/28 02:31:50;;;;;;;0.63;0.63;;;14.00;99.90;;;;;;5041365;28;20048;-73
2022/07/28 02:34:20;;;;;;;1.30;0.90;;;14.00;99.90;;;;;;5040910;28;20099;-73
2022/07/28 02:36:53;;;;;;;5.05;1.20;;;14.00;99.90;;;;;;5040542;28;20049;-73
2022/07/28 02:39:24;;;;;;;0.60;0.57;;;14.00;99.90;;;;;;5040463;28;20053;-73
2022/07/28 02:41:56;;;;;;;1.00;0.87;;;14.00;99.90;;;;;;5039981;28;20060;-73
2022/07/28 02:44:39;;;;;;;1.17;1.02;;;14.00;99.90;;;;;;5040431;28;20283;-73
2022/07/28 02:47:06;;;;;;;;;;;14.00;99.90;;;;;;5041005;28;20094;-73
2022/07/28 02:49:34;;;;;;;2.58;1.17;;;14.00;99.90;;;;;;5040602;28;19928;-73
2022/07/28 02:52:03;;;;;;;0.70;0.60;;;13.90;99.90;;;;;;5040346;28;20052;-73
2022/07/28 02:54:31;;;;;;;0.85;0.82;;;13.90;99.90;;;;;;5040449;28;20033;-73
2022/07/28 02:56:59;;;;;;;1.25;1.17;;;13.90;99.90;;;;;;5039104;28;20053;-73
2022/07/28 02:59:26;;;;;;;0.65;0.65;;;13.90;99.90;;;;;;5040372;28;20041;-73
2022/07/28 03:01:52;;;;;;;0.60;0.60;;;13.90;99.90;;;;;;5039402;28;20041;-73
2022/07/28 03:07:04;;;;;;;0.80;0.80;;;13.80;99.90;;;;;;5029047;28;20054;-73
2022/07/28 03:09:30;;;;;;;1.15;1.10;;;13.70;99.90;;;;;;5039656;28;20622;-73
2022/07/28 03:11:56;;;;;;;2.38;0.77;;;13.70;99.90;;;;;;5039316;28;20045;-73
2022/07/28 03:14:21;;;;;;;1.13;1.13;;;13.70;99.90;;;;;;5060115;28;20474;-73
2022/07/28 03:16:47;;;;;;;0.50;0.50;;;13.70;99.90;;;;;;5059688;28;20044;-73
2022/07/28 03:19:13;;;;;;;0.60;0.60;;;13.70;99.90;;;;;;5060377;28;20044;-73
2022/07/28 03:21:40;;;;;;;0.45;0.45;;;13.70;99.90;;;;;;5043393;28;20049;-73
2022/07/28 03:24:07;;;;;;;0.60;0.50;;;13.70;99.90;;;;;;5038774;28;20088;-73
2022/07/28 03:26:42;;;;;;;0.50;0.50;;;13.70;99.90;;;;;;5038881;28;20307;-73
2022/07/28 03:29:09;;;;;;;0.60;0.60;;;13.70;99.90;;;;;;5040176;28;20125;-73
2022/07/28 03:31:36;;;;;;;0.73;0.65;;;13.70;99.90;;;;;;5039648;28;20049;-73
2022/07/28 03:34:03;;;;;;;0.65;0.65;;;13.70;99.90;;;;;;5039375;28;20045;-73
2022/07/28 03:36:38;;;;;;;1.23;1.00;;;13.70;99.90;;;;;;5039433;28;20121;-74
2022/07/28 03:39:07;;;;;;;0.50;0.50;;;13.70;99.90;;;;;;5037568;28;20076;-74
2022/07/28 03:41:34;;;;;;;6.50;0.88;;;13.70;99.90;;;;;;5038393;28;20075;-74
2022/07/28 03:44:01;;;;;;;0.60;0.60;;;13.70;99.90;;;;;;5039219;28;20554;-73
2022/07/28 03:46:27;;;;;;;0.70;0.70;;;13.70;99.90;;;;;;5039294;28;20052;-73
2022/07/28 03:48:53;;;;;;;0.70;0.70;;;13.70;99.90;;;;;;5039682;28;20037;-74
2022/07/28 03:51:19;;;;;;;1.65;1.33;;;13.70;99.90;;;;;;5039668;28;20518;-73
2022/07/28 03:53:45;;;;;;;0.73;0.73;;;13.60;99.90;;;;;;5021529;28;20076;-74
2022/07/28 03:56:11;;;;;;;0.60;0.60;;;13.60;99.90;;;;;;5039312;28;20070;-74
2022/07/28 03:58:37;;;;;;;0.93;0.80;;;13.60;99.90;;;;;;5039870;28;20037;-73
2022/07/28 04:01:03;;;;;;;0.73;0.60;;;13.60;99.90;;;;;;5039741;28;20131;-73
2022/07/28 04:03:29;;;;;;;0.75;0.73;;;13.60;99.90;;;;;;5037616;28;20122;-74
2022/07/28 04:05:56;;;;;;;1.38;1.08;;;13.60;99.90;;;;;;5038054;28;20091;-73
2022/07/28 04:08:22;;;;;;;0.90;0.88;;;13.60;99.90;;;;;;5038657;28;20076;-74
2022/07/28 04:10:48;;;;;;;0.52;0.52;;;13.60;99.90;;;;;;5037482;28;20495;-74
2022/07/28 04:13:13;;;;;;;0.70;0.63;;;13.60;99.90;;;;;;5049887;28;20045;-74
2022/07/28 04:15:39;;;;;;;0.82;0.82;;;13.60;99.90;;;;;;5060024;28;20043;-74
2022/07/28 04:18:05;;;;;;;2.35;0.80;;;13.50;99.90;;;;;;5059114;28;20036;-73
2022/07/28 04:20:31;;;;;;;0.90;0.88;;;13.50;99.90;;;;;;5058882;28;20209;-74
2022/07/28 04:22:56;;;;;;;1.08;0.95;;;13.50;99.90;;;;;;5040844;28;20118;-74
2022/07/28 04:25:24;;;;;;;0.65;0.65;;;13.40;99.90;;;;;;5037928;28;20040;-73
2022/07/28 04:27:51;;;;;;;1.42;1.33;;;13.40;99.90;;;;;;5038668;28;20210;-74
2022/07/28 04:30:19;;;;;;;1.20;1.15;;;13.40;99.90;;;;;;5037891;28;20041;-74
2022/07/28 04:32:46;;;;;;;0.93;0.80;;;13.40;99.90;;;;;;5038437;28;20102;-73
2022/07/28 04:35:13;;;;;;;0.50;0.50;;;13.40;99.90;;;;;;5039887;28;20069;-73
2022/07/28 04:37:39;;;;;;;2.28;1.15;;;13.40;99.90;;;;;;5039549;28;20040;-73
2022/07/28 04:40:06;;;;;;;0.95;0.55;;;13.40;99.90;;;;;;5038833;28;20033;-74
2022/07/28 04:42:32;;;;;;;0.90;0.90;;;13.40;99.90;;;;;;5037960;28;20049;-73
2022/07/28 04:44:58;;;;;;;0.73;0.73;;;13.40;99.90;;;;;;5038040;28;20408;-73
2022/07/28 04:47:24;;;;;;;1.15;0.80;;;13.40;99.90;;;;;;5037324;28;20071;-73
2022/07/28 04:49:51;;;;;;;1.63;1.25;;;13.40;99.90;;;;;;5038383;28;20045;-73
2022/07/28 04:52:17;;;;;;;2.47;1.05;;;13.40;99.90;;;;;;5043013;28;20052;-74
2022/07/28 04:54:43;;;;;;;2.95;1.08;;;13.40;99.90;;;;;;5042874;28;20098;-73
2022/07/28 04:57:10;;;;;;;0.65;0.63;;;13.40;99.90;;;;;;5041956;28;20049;-73
2022/07/28 04:59:36;;;;;;;1.70;1.17;;;13.40;99.90;;;;;;5042356;28;20049;-73
2022/07/28 05:02:02;;;;;;;0.85;0.82;;;13.50;99.90;;;;;;5042644;28;20041;-73
2022/07/28 05:04:27;;;;;;;3.17;0.80;;;13.50;99.90;;;;;;5039592;28;20044;-74
2022/07/28 05:06:53;;;;;;;2.08;0.82;;;13.50;99.90;;;;;;5042115;28;20553;-73
2022/07/28 05:09:20;;;;;;;0.98;0.98;;;13.60;99.90;;;;;;5042429;28;20092;-74
2022/07/28 05:11:45;;;;;;;1.00;1.00;;;13.60;99.90;;;;;;5041448;28;20051;-73
2022/07/28 05:14:11;;;;;;;1.13;1.02;;;13.60;99.90;;;;;;5060317;28;20123;-73
2022/07/28 05:16:37;;;;;;;0.80;0.80;;;13.70;99.90;;;;;;5062284;28;20040;-73
2022/07/28 05:19:02;;;;;;;1.95;1.08;;;13.70;99.90;;;;;;5053886;28;20040;-73
2022/07/28 05:21:28;;;;;;;1.15;1.02;;;13.70;99.90;;;;;;5041769;28;20053;-74
2022/07/28 05:23:54;;;;;;;0.95;0.95;;;13.80;99.90;;;;;;5040517;28;20033;-73
2022/07/28 05:26:19;;;;;;;1.02;0.73;;;13.90;99.90;;;;;;5041065;28;20094;-73
2022/07/28 05:28:45;;;;;;;1.00;0.95;;;13.90;99.90;;;;;;5041486;28;20048;-73
2022/07/28 05:31:10;;;;;;;2.13;1.67;;;13.90;99.90;;;;;;5042619;28;20053;-74
2022/07/28 05:33:36;;;;;;;0.93;0.93;;;14.00;99.90;;;;;;5042344;28;20523;-73
2022/07/28 05:36:03;;;;;;;4.28;1.67;;;14.10;99.90;;;;;;5039851;28;20055;-74
2022/07/28 05:38:30;;;;;;;2.95;1.25;;;14.10;99.90;;;;;;5041972;28;20399;-73
2022/07/28 05:40:56;;;;;;;1.20;1.13;;;14.20;99.90;;;;;;5040980;28;20041;-74
2022/07/28 05:43:22;;;;;;;1.67;0.82;;;14.20;99.90;;;;;;5041128;28;20052;-74
2022/07/28 05:45:48;;;;;;;1.63;1.05;;;14.20;99.90;;;;;;5041345;28;20036;-74
2022/07/28 05:48:20;;;;;;;0.93;0.88;;;14.30;99.90;;;;;;5041941;28;20045;-74
2022/07/28 05:50:46;;;;;;;;;;;14.30;99.90;;;;;;5041295;28;20055;-73
2022/07/28 05:53:11;;;;;;;1.00;1.00;;;14.40;99.90;;;;;;5041643;28;20020;-73
2022/07/28 05:55:37;;;;;;;1.10;0.90;;;14.40;99.90;;;;;;5039242;28;20049;-74
2022/07/28 05:58:03;;;;;;;3.60;0.88;;;14.40;99.90;;;;;;5041362;28;20126;-73
2022/07/28 06:00:31;;;;;;;1.35;1.20;;;14.50;99.90;;;;;;5041175;28;20714;-73
2022/07/28 06:03:00;;;;;;;1.27;1.25;;;14.50;99.90;;;;;;5039714;28;20080;-74
2022/07/28 06:05:26;;;;;;;1.15;1.00;;;14.50;99.90;;;;;;5041296;28;20052;-74
2022/07/28 06:07:52;;;;;;;1.45;1.35;;;14.60;99.90;;;;;;5038068;28;20056;-74
2022/07/28 06:10:20;;;;;;;3.30;1.30;;;14.60;99.90;;;;;;5040836;28;20036;-74
2022/07/28 06:12:48;;;;;;;1.10;0.82;;;14.70;99.90;;;;;;5046469;28;20041;-74
2022/07/28 06:15:20;;;;;;;2.38;1.23;;;14.70;99.90;;;;;;5059397;28;20045;-74
2022/07/28 06:17:46;;;;;;;1.70;1.30;;;14.80;99.90;;;;;;5060842;28;20071;-74
2022/07/28 06:20:12;;;;;;;1.30;0.95;;;14.80;99.90;;;;;;5051077;28;20029;-74
2022/07/28 06:22:46;;;;;;;0.73;0.73;;;14.80;99.90;;;;;;5022069;28;20044;-74
2022/07/28 06:25:16;;;;;;;1.42;0.93;;;14.90;99.90;;;;;;5041278;28;20127;-74
2022/07/28 06:27:44;;;;;;;4.30;1.08;;;14.90;99.90;;;;;;5038015;28;20112;-74
2022/07/28 06:30:10;;;;;;;0.82;0.82;;;14.90;99.90;;;;;;5040913;28;20037;-74
2022/07/28 06:32:36;;;;;;;0.88;0.82;;;14.90;99.90;;;;;;5040325;28;20491;-73
2022/07/28 06:35:02;;;;;;;1.50;0.98;;;15.00;99.90;;;;;;5038437;28;20325;-74
2022/07/28 06:37:28;;;;;;;0.55;0.43;;;15.00;99.90;;;;;;5039966;28;20049;-73
2022/07/28 06:39:53;;;;;;;6.63;0.95;;;15.00;99.90;;;;;;5040187;28;20047;-74
2022/07/28 06:42:19;;;;;;;1.00;0.88;;;15.10;99.90;;;;;;5039408;28;20064;-74
2022/07/28 06:44:44;;;;;;;0.88;0.50;;;15.10;99.90;;;;;;5038540;28;20183;-73
2022/07/28 06:47:10;;;;;;;1.80;1.17;;;15.10;99.90;;;;;;5040800;28;20041;-74
2022/07/28 06:49:36;;;;;;;0.60;0.60;;;15.20;99.90;;;;;;5039101;28;20132;-74
2022/07/28 06:52:01;;;;;;;1.40;1.02;;;15.20;99.90;;;;;;5047844;28;20484;-74
2022/07/28 06:54:27;;;;;;;3.90;0.73;;;15.20;99.90;;;;;;5059988;28;20088;-74
2022/07/28 06:56:52;;;;;;;0.50;0.50;;;15.20;99.90;;;;;;5059008;28;20043;-73
2022/07/28 06:59:18;;;;;;;0.60;0.57;;;15.30;99.90;;;;;;5052236;28;20035;-73
2022/07/28 07:01:44;;;;;;;1.05;0.90;;;15.30;99.90;;;;;;5043896;28;20558;-74
2022/07/28 07:04:09;;;;;;;0.30;0.30;;;15.30;99.90;;;;;;5046503;28;20383;-74
2022/07/28 07:06:35;;;;;;;0.80;0.80;;;15.40;99.90;;;;;;5044436;28;20048;-74
2022/07/28 07:09:02;;;;;;;0.32;0.20;;;15.40;99.90;;;;;;5035629;28;20041;-74
2022/07/28 07:11:27;;;;;;;5.38;1.00;;;15.50;99.90;;;;;;5036915;28;20047;-74
2022/07/28 07:13:53;;;;;;;0.45;0.35;;;15.50;99.90;;;;;;5037050;28;20041;-72
2022/07/28 07:16:18;;;;;;;1.88;0.90;;;15.50;99.90;;;;;;5040147;28;20494;-71
2022/07/28 07:18:44;;;;;;;0.60;0.35;;;15.60;99.90;;;;;;5039236;28;20075;-77
2022/07/28 07:21:10;;;;;;;0.50;0.38;;;15.60;99.90;;;;;;5039291;28;20598;-75
2022/07/28 07:23:35;;;;;;;0.88;0.77;;;15.60;99.90;;;;;;5015068;28;20163;-75
2022/07/28 07:26:02;;;;;;;0.63;0.63;;;15.60;99.90;;;;;;5030149;28;20080;-72
2022/07/28 07:28:28;;;;;;;0.38;0.38;;;15.70;99.90;;;;;;5039708;28;20044;-72
2022/07/28 07:30:53;;;;;;;0.70;0.70;;;15.70;99.90;;;;;;5038196;28;20245;-72
2022/07/28 07:33:19;;;;;;;0.70;0.47;;;15.70;99.90;;;;;;5037259;28;20052;-72
2022/07/28 07:35:45;;;;;;;0.55;0.55;;;15.70;99.90;;;;;;5038060;28;20045;-73
2022/07/28 07:38:10;;;;;;;1.17;0.73;;;15.80;99.90;;;;;;5037054;28;20510;-72
2022/07/28 07:40:36;;;;;;;1.30;0.88;;;15.80;99.90;;;;;;5037418;28;20381;-72
2022/07/28 07:43:03;;;;;;;0.35;0.35;;;15.80;99.90;;;;;;5023795;28;20041;-72
2022/07/28 07:45:28;;;;;;;1.95;1.17;;;15.80;99.90;;;;;;5028676;28;20147;-73
2022/07/28 07:47:54;;;;;;;1.17;0.88;;;15.90;99.90;;;;;;5036279;28;20116;-73
2022/07/28 07:50:19;;;;;;;0.75;0.65;;;15.90;99.90;;;;;;5038191;28;20692;-72
2022/07/28 07:52:46;;;;;;;0.68;0.65;;;15.90;99.90;;;;;;5037878;28;20481;-72
2022/07/28 07:55:11;;;;;;;1.10;0.45;;;16.00;99.90;;;;;;5037791;28;20045;-72
2022/07/28 07:57:37;;;;;;;1.27;0.82;;;16.00;99.90;;;;;;5038185;28;20114;-72
2022/07/28 08:00:04;;;;;;;2.53;0.82;;;16.00;99.90;;;;;;5037784;28;20182;-72
2022/07/28 08:02:29;;;;;;;0.75;0.57;;;16.00;99.90;;;;;;5037835;28;20041;-71
2022/07/28 08:04:55;;;;;;;2.08;0.55;;;16.10;99.90;;;;;;5033375;28;20060;-73
2022/07/28 08:07:21;;;;;;;1.40;0.85;;;16.10;99.90;;;;;;5019814;28;20048;-73
2022/07/28 08:09:46;;;;;;;0.50;0.50;;;16.20;99.90;;;;;;5037332;28;20044;-73
2022/07/28 08:12:12;;;;;;;2.08;1.30;;;16.20;99.90;;;;;;5021433;28;20512;-73
2022/07/28 08:14:37;;;;;;;0.98;0.60;;;16.20;99.90;;;;;;5058314;28;20033;-73
2022/07/28 08:17:03;;;;;;;0.80;0.50;;;16.20;99.90;;;;;;5047089;28;20158;-73
2022/07/28 08:19:28;;;;;;;0.57;0.57;;;16.30;99.90;;;;;;5037764;28;20040;-73
2022/07/28 08:21:54;;;;;;;2.88;1.00;;;16.30;99.90;;;;;;5036823;28;20279;-73
2022/07/28 08:24:20;;;;;;;2.13;1.23;;;16.40;99.90;;;;;;5024946;28;20069;-73
2022/07/28 08:26:45;;;;;;;0.85;0.60;;;16.50;99.90;;;;;;5028614;28;20497;-75
2022/07/28 08:29:11;;;;;;;1.23;1.13;;;16.60;99.90;;;;;;5033194;28;20044;-75
2022/07/28 08:31:36;;;;;;;2.08;0.95;;;16.60;99.90;;;;;;5032400;28;20037;-73
2022/07/28 08:34:03;;;;;;;2.30;0.95;;;16.60;99.90;;;;;;5032659;28;20230;-73
2022/07/28 08:36:30;;;;;;;0.77;0.63;;;16.60;99.90;;;;;;5031470;28;20053;-73
2022/07/28 08:38:56;;;;;;;0.30;0.30;;;16.70;99.90;;;;;;5043459;28;20136;-73
2022/07/28 08:41:31;;;;;;;0.52;0.43;;;16.70;99.90;;;;;;5049644;28;20135;-74
2022/07/28 08:44:01;;;;;;;0.77;0.77;;;16.70;99.90;;;;;;5041588;28;20111;-72
2022/07/28 08:46:30;;;;;;;0.63;0.63;;;16.80;99.90;;;;;;5042609;28;20041;-72
2022/07/28 08:48:56;;;;;;;1.58;0.73;;;16.70;99.90;;;;;;5041950;28;20044;-73
2022/07/28 08:51:26;;;;;;;0.60;0.60;;;16.70;99.90;;;;;;5023132;28;20045;-73
2022/07/28 08:53:52;;;;;;;2.03;0.90;;;16.70;99.90;;;;;;5019406;28;20041;-73
2022/07/28 08:56:19;;;;;;;0.90;0.73;;;16.70;99.90;;;;;;5017648;28;20107;-73
2022/07/28 08:58:44;;;;;;;1.88;0.57;;;16.70;99.90;;;;;;5019883;28;20064;-73
2022/07/28 09:01:10;;;;;;;0.22;0.20;;;16.70;99.90;;;;;;5020067;28;20041;-73
2022/07/28 09:03:38;;;;;;;2.53;1.00;;;16.70;99.90;;;;;;5020070;28;20465;-73
2022/07/28 09:06:04;;;;;;;0.35;0.35;;;16.70;99.90;;;;;;5019271;28;20057;-73
2022/07/28 09:08:29;;;;;;;0.88;0.70;;;16.70;99.90;;;;;;5020380;28;20862;-73
2022/07/28 09:10:55;;;;;;;0.52;0.50;;;16.70;99.90;;;;;;5019006;28;20052;-73
2022/07/28 09:13:21;;;;;;;1.05;0.73;;;16.70;99.90;;;;;;5042293;28;20036;-72
2022/07/28 09:15:46;;;;;;;0.70;0.60;;;16.60;99.90;;;;;;5060401;28;20487;-73
2022/07/28 09:18:13;;;;;;;0.15;0.15;;;16.60;99.90;;;;;;5061078;28;20422;-73
2022/07/28 09:20:40;;;;;;;2.05;0.55;;;16.70;99.90;;;;;;5060435;28;20041;-73
2022/07/28 09:23:07;;;;;;;0.38;0.38;;;16.60;99.90;;;;;;5060278;28;20055;-72
2022/07/28 09:25:33;;;;;;;0.25;0.25;;;16.60;99.90;;;;;;5059954;28;20072;-73
2022/07/28 09:28:10;;;;;;;2.47;0.30;;;16.60;99.90;;;;;;5060160;28;20041;-73
2022/07/28 09:30:45;;;;;;;2.65;0.73;;;16.60;99.90;;;;;;5060997;28;20776;-72
2022/07/28 09:33:26;;;;;;;0.40;0.40;;;16.60;99.90;;;;;;5060821;28;20056;-73
2022/07/28 09:35:54;;;;;;;0.52;0.40;;;16.60;99.90;;;;;;5059976;28;20055;-73
2022/07/28 09:38:22;;;;;;;0.80;0.60;;;16.70;99.90;;;;;;5058713;28;20045;-73
2022/07/28 09:41:06;;;;;;;0.63;0.63;;;16.70;99.90;;;;;;5057979;28;20080;-73
2022/07/28 09:43:39;;;;;;;0.85;0.60;;;16.70;99.90;;;;;;5059893;28;20040;-73
2022/07/28 09:46:07;;;;;;;0.30;0.30;;;16.80;99.90;;;;;;5058392;28;20049;-73
2022/07/28 09:48:37;;;;;;;1.20;0.50;;;16.80;99.90;;;;;;5060337;28;20694;-73
2022/07/28 09:51:11;;;;;;;0.45;0.45;;;16.90;99.90;;;;;;5059430;28;20040;-73
2022/07/28 09:53:37;;;;;;;0.55;0.55;;;16.90;99.90;;;;;;5059053;28;20068;-73
2022/07/28 09:56:03;;;;;;;4.63;0.93;;;16.90;99.90;;;;;;5057267;28;20052;-73
2022/07/28 09:58:29;;;;;;;3.85;1.30;;;16.90;99.90;;;;;;5058414;28;20047;-73
2022/07/28 10:01:21;;;;;;;1.45;0.70;;;17.00;99.90;;;;;;5058365;28;20436;-73
2022/07/28 10:03:54;;;;;;;2.20;0.80;;;17.10;99.90;;;;;;5058185;28;20041;-73
2022/07/28 10:06:39;;;;;;;0.75;0.32;;;17.10;99.90;;;;;;5059737;28;20084;-73
2022/07/28 10:09:06;;;;;;;0.40;0.40;;;17.10;99.90;;;;;;5058233;28;20475;-73
2022/07/28 10:11:32;;;;;;;0.73;0.52;;;17.10;99.90;;;;;;5058957;28;20044;-73
2022/07/28 10:14:03;;;;;;;0.30;0.30;;;17.20;99.90;;;;;;5042493;28;20127;-73
2022/07/28 10:16:32;;;;;;;1.95;0.40;;;17.20;99.90;;;;;;5039579;28;20044;-73
2022/07/28 10:19:00;;;;;;;0.63;0.50;;;17.20;99.90;;;;;;5038730;28;20037;-73
2022/07/28 10:21:27;;;;;;;1.52;0.60;;;17.20;99.90;;;;;;5039425;28;20495;-73
2022/07/28 10:23:55;;;;;;;0.47;0.47;;;17.20;99.90;;;;;;5039044;28;20244;-73
2022/07/28 10:26:29;;;;;;;0.82;0.40;;;17.30;99.90;;;;;;5038270;28;20128;-73
2022/07/28 10:28:56;;;;;;;0.43;0.43;;;17.30;99.90;;;;;;5038643;28;20127;-73
2022/07/28 10:31:31;;;;;;;1.02;0.88;;;17.30;99.90;;;;;;5037738;28;20051;-73
2022/07/28 10:33:59;;;;;;;0.47;0.47;;;17.30;99.90;;;;;;5039010;28;20043;-73
2022/07/28 10:36:25;;;;;;;0.98;0.98;;;17.30;99.90;;;;;;5038920;28;20089;-73
2022/07/28 10:38:58;;;;;;;0.85;0.77;;;17.30;99.90;;;;;;5039081;28;20040;-73
2022/07/28 10:41:27;;;;;;;0.73;0.50;;;17.30;99.90;;;;;;5037979;28;20063;-73
2022/07/28 10:43:54;;;;;;;0.77;0.77;;;17.30;99.90;;;;;;5039245;28;20487;-73
2022/07/28 10:46:20;;;;;;;0.95;0.73;;;17.30;99.90;;;;;;5038785;28;20423;-73
2022/07/28 10:48:46;;;;;;;1.42;0.65;;;17.40;99.90;;;;;;5020216;28;20049;-73
2022/07/28 10:51:12;;;;;;;0.40;0.40;;;17.40;99.90;;;;;;5039523;28;20063;-73
2022/07/28 10:53:59;;;;;;;1.95;0.70;;;17.40;99.90;;;;;;5038712;28;20040;-73
2022/07/28 10:56:45;;;;;;;1.15;1.00;;;17.40;99.90;;;;;;5036434;28;20143;-73
2022/07/28 10:59:48;;;;;;;0.98;0.60;;;17.50;99.90;;;;;;5038076;28;20053;-73
2022/07/28 11:02:44;;;;;;;0.90;0.57;;;17.60;99.90;;;;;;5039016;28;20040;-75
2022/07/28 11:05:28;;;;;;;0.57;0.57;;;17.60;99.90;;;;;;5009116;28;20349;-73
2022/07/28 11:07:55;;;;;;;1.67;0.82;;;17.60;99.90;;;;;;5037985;28;20045;-73
2022/07/28 11:10:21;;;;;;;0.40;0.40;;;17.60;99.90;;;;;;5034568;28;20091;-74
2022/07/28 11:12:52;;;;;;;0.43;0.43;;;17.70;99.90;;;;;;5046106;28;20037;-73
2022/07/28 11:15:31;;;;;;;2.33;0.57;;;17.70;99.90;;;;;;5051297;28;20041;-73
2022/07/28 11:18:03;;;;;;;0.40;0.40;;;17.70;99.90;;;;;;5038376;28;20115;-74
2022/07/28 11:20:47;;;;;;;;;;;17.80;99.90;;;;;;5040351;28;20414;-73
2022/07/28 11:23:36;;;;;;;0.50;0.50;;;17.80;99.90;;;;;;5038682;28;19928;-71
2022/07/28 11:26:22;;;;;;;0.70;0.55;;;17.80;99.90;;;;;;5038318;28;20059;-72
2022/07/28 11:29:04;;;;;;;0.43;0.30;;;17.80;99.90;;;;;;5028566;28;20550;-72
2022/07/28 11:31:45;;;;;;;0.85;0.52;;;17.90;99.90;;;;;;5039652;28;20056;-71
2022/07/28 11:34:17;;;;;;;1.00;0.50;;;17.90;99.90;;;;;;5035791;28;20107;-71
2022/07/28 11:37:10;;;;;;;0.40;0.40;;;17.90;99.90;;;;;;5026794;28;20043;-71
2022/07/28 11:39:38;;;;;;;1.05;0.70;;;17.90;99.90;;;;;;5028772;28;20095;-72
2022/07/28 11:42:31;;;;;;;0.60;0.60;;;17.90;99.90;;;;;;5039758;28;20142;-71
2022/07/28 11:45:17;;;;;;;2.08;0.50;;;17.90;99.90;;;;;;5035742;28;20040;-71
2022/07/28 11:47:42;;;;;;;1.85;0.60;;;18.00;99.90;;;;;;5038804;28;20060;-71
2022/07/28 11:50:15;;;;;;;0.88;0.70;;;18.00;99.90;;;;;;5036712;28;20041;-74
2022/07/28 11:52:55;;;;;;;3.28;0.90;;;18.00;99.90;;;;;;5034438;28;20042;-76
2022/07/28 11:55:21;;;;;;;2.85;0.82;;;18.10;99.90;;;;;;5034868;28;20052;-79
2022/07/28 11:57:47;;;;;;;2.03;0.73;;;18.10;99.90;;;;;;5036087;28;20627;-75
2022/07/28 12:00:21;;;;;;;0.93;0.40;;;18.10;99.90;;;;;;5042461;28;20114;-74
2022/07/28 12:02:48;;;;;;;0.75;0.50;;;18.20;99.90;;;;;;5043126;28;20116;-76
2022/07/28 12:05:16;;;;;;;0.40;0.40;;;18.20;99.90;;;;;;5037031;28;20049;-79
2022/07/28 12:07:43;;;;;;;0.65;0.65;;;18.30;99.90;;;;;;5031198;28;20053;-81
2022/07/28 12:10:22;;;;;;;0.25;0.25;;;18.30;99.90;;;;;;5023302;28;20439;-81
2022/07/28 12:12:59;;;;;;;0.70;0.47;;;18.40;99.90;;;;;;5028369;28;20040;-82
2022/07/28 12:15:26;;;;;;;0.68;0.68;;;18.40;99.90;;;;;;5043647;28;20045;-79
2022/07/28 12:17:52;;;;;;;1.08;0.82;;;18.40;99.90;;;;;;5042841;28;20118;-80
2022/07/28 12:20:18;;;;;;;0.77;0.77;;;18.40;99.90;;;;;;5039046;28;20519;-80
2022/07/28 12:23:03;;;;;;;0.30;0.30;;;18.40;99.90;;;;;;5042426;28;20774;-83
2022/07/28 12:25:28;;;;;;;0.32;0.32;;;18.40;99.90;;;;;;5041252;28;20098;-77
2022/07/28 12:27:55;;;;;;;0.60;0.60;;;18.50;99.90;;;;;;5031267;28;20736;-74
2022/07/28 12:30:26;;;;;;;1.00;0.43;;;18.40;99.90;;;;;;5027984;28;20041;-81
2022/07/28 12:32:52;;;;;;;0.43;0.43;;;18.50;99.90;;;;;;5032648;28;20513;-74
2022/07/28 12:35:18;;;;;;;3.30;1.00;;;18.50;99.90;;;;;;5041816;28;20529;-73
2022/07/28 12:37:49;;;;;;;1.67;0.75;;;18.60;99.90;;;;;;5026593;28;20553;-75
2022/07/28 12:40:19;;;;;;;0.52;0.52;;;18.60;99.90;;;;;;5020927;28;20377;-78
2022/07/28 12:42:52;;;;;;;0.30;0.30;;;18.60;99.90;;;;;;5023255;28;20045;-77
2022/07/28 12:45:18;;;;;;;0.52;0.40;;;18.60;99.90;;;;;;5033932;28;20456;-76
2022/07/28 12:47:43;;;;;;;0.77;0.43;;;18.70;99.90;;;;;;5031248;28;20120;-79
2022/07/28 12:50:19;;;;;;;2.90;0.35;;;18.70;99.90;;;;;;5041575;28;20033;-75
2022/07/28 12:53:03;;;;;;;0.82;0.60;;;18.80;99.90;;;;;;5040216;28;20037;-75
2022/07/28 12:55:31;;;;;;;4.07;0.28;;;18.70;99.90;;;;;;5041604;28;20045;-77
2022/07/28 12:57:57;;;;;;;0.55;0.55;;;18.70;99.90;;;;;;5042682;28;20103;-77
2022/07/28 13:00:26;;;;;;;0.30;0.30;;;18.80;99.90;;;;;;5042359;28;20063;-78